Time;durP1;ratioP1;P1;durP2;ratioP2;P2;SDS_P1;SDS_P2;PMS_P1;PMS_P2;Temp;Humidity;BMP_temperature;BMP_pressure;BME280_temperature;BME280_humidity;BME280_pressure;Samples;Min_cycle;Max_cycle;Signal;HPM_P1;HPM_P2
2022/05/30 00:02:23;;;;;;;;;;;;;;;;;;5081746;28;19919;-74
2022/05/30 00:05:09;;;;;;;;;;;;;;;;;;5085576;28;20384;-75
2022/05/30 00:07:55;;;;;;;;;;;;;;;;;;5088360;28;19912;-75
2022/05/30 00:10:42;;;;;;;;;;;;;;;;;;5088712;28;19912;-76
2022/05/30 00:13:28;;;;;;;;;;;;;;;;;;5083376;28;19923;-76
2022/05/30 00:16:15;;;;;;;;;;;;;;;;;;5090003;28;19914;-76
2022/05/30 00:19:01;;;;;;;;;;;;;;;;;;5089379;28;20348;-76
2022/05/30 00:21:48;;;;;;;;;;;;;;;;;;5089142;28;19908;-74
2022/05/30 00:24:34;;;;;;;;;;;;;;;;;;5084590;28;19908;-75
2022/05/30 00:27:21;;;;;;;;;;;;;;;;;;5088132;28;19939;-76
2022/05/30 00:30:07;;;;;;;;;;;;;;;;;;5084710;28;19916;-76
2022/05/30 00:32:56;;;;;;;;;;;;;;;;;;5087563;28;19946;-76
2022/05/30 00:35:42;;;;;;;;;;;;;;;;;;5088769;28;19946;-74
2022/05/30 00:38:29;;;;;;;;;;;;;;;;;;5077327;28;19912;-75
2022/05/30 00:41:15;;;;;;;;;;;;;;;;;;5086281;28;19919;-76
2022/05/30 00:44:02;;;;;;;;;;;;;;;;;;5096338;28;19919;-74
2022/05/30 00:46:48;;;;;;;;;;;;;;;;;;5097259;28;19919;-76
2022/05/30 00:49:35;;;;;;;;;;;;;;;;;;5089609;28;19908;-75
2022/05/30 00:52:29;;;;;;;;;;;;;;;;;;5089185;28;20424;-75
2022/05/30 00:55:15;;;;;;;;;;;;;;;;;;5075519;28;19942;-76
2022/05/30 00:58:02;;;;;;;;;;;;;;;;;;5085311;28;19915;-76
2022/05/30 01:00:48;;;;;;;;;;;;;;;;;;5087847;28;19912;-75
2022/05/30 01:06:39;;;;;;;;;;;;;;;;;;5087022;28;19912;-74
2022/05/30 01:09:26;;;;;;;;;;;;;;;;;;5070444;28;20375;-75
2022/05/30 01:12:13;;;;;;;;;;;;;;;;;;5087145;28;19915;-75
2022/05/30 01:14:59;;;;;;;;;;;;;;;;;;5088644;28;20284;-75
2022/05/30 01:17:45;;;;;;;;;;;;;;;;;;5102933;28;19915;-75
2022/05/30 01:20:32;;;;;;;;;;;;;;;;;;5097512;28;19909;-75
2022/05/30 01:23:18;;;;;;;;;;;;;;;;;;5084100;28;19955;-74
2022/05/30 01:26:05;;;;;;;;;;;;;;;;;;5094695;28;19919;-74
2022/05/30 01:28:53;;;;;;;;;;;;;;;;;;5098601;28;20276;-76
2022/05/30 01:31:39;;;;;;;;;;;;;;;;;;5094119;28;19922;-74
2022/05/30 01:34:26;;;;;;;;;;;;;;;;;;5094975;28;20368;-75
2022/05/30 01:37:12;;;;;;;;;;;;;;;;;;5092399;28;20015;-75
2022/05/30 01:39:59;;;;;;;;;;;;;;;;;;5102599;28;20410;-74
2022/05/30 01:42:45;;;;;;;;;;;;;;;;;;5082322;28;19912;-74
2022/05/30 01:45:32;;;;;;;;;;;;;;;;;;5090260;28;19918;-74
2022/05/30 01:48:18;;;;;;;;;;;;;;;;;;5094253;28;20308;-74
2022/05/30 01:51:05;;;;;;;;;;;;;;;;;;5086374;28;20395;-75
2022/05/30 01:53:51;;;;;;;;;;;;;;;;;;5086863;28;19909;-75
2022/05/30 01:56:38;;;;;;;;;;;;;;;;;;5084909;28;19913;-75
2022/05/30 01:59:24;;;;;;;;;;;;;;;;;;5089161;28;20374;-75
2022/05/30 02:02:11;;;;;;;;;;;;;;;;;;5088716;28;19918;-76
2022/05/30 02:04:57;;;;;;;;;;;;;;;;;;5088899;28;19908;-75
2022/05/30 02:07:44;;;;;;;;;;;;;;;;;;5090465;28;19923;-75
2022/05/30 02:10:30;;;;;;;;;;;;;;;;;;5073540;28;19915;-75
2022/05/30 02:13:17;;;;;;;;;;;;;;;;;;5089429;28;20394;-76
2022/05/30 02:19:09;;;;;;;;;;;;;;;;;;5080103;28;20365;-75
2022/05/30 02:21:55;;;;;;;;;;;;;;;;;;5090368;28;19915;-76
2022/05/30 02:24:42;;;;;;;;;;;;;;;;;;5084212;28;19914;-75
2022/05/30 02:27:28;;;;;;;;;;;;;;;;;;5089780;28;19912;-75
2022/05/30 02:30:15;;;;;;;;;;;;;;;;;;5094393;28;19912;-76
2022/05/30 02:39:32;;;;;;;;;;;;;;;;;;5024070;28;19967;-75
2022/05/30 02:42:18;;;;;;;;;;;;;;;;;;5026958;28;20428;-75
2022/05/30 02:45:05;;;;;;;;;;;;;;;;;;5080495;28;19912;-77
2022/05/30 02:47:51;;;;;;;;;;;;;;;;;;5085350;28;19920;-77
2022/05/30 02:50:38;;;;;;;;;;;;;;;;;;5079019;28;19916;-74
2022/05/30 02:53:24;;;;;;;;;;;;;;;;;;5099186;28;20297;-76
2022/05/30 02:56:11;;;;;;;;;;;;;;;;;;5076441;28;19920;-74
2022/05/30 02:58:57;;;;;;;;;;;;;;;;;;5098257;28;19908;-74
2022/05/30 03:01:44;;;;;;;;;;;;;;;;;;5086186;28;19912;-75
2022/05/30 03:04:33;;;;;;;;;;;;;;;;;;5089455;28;19908;-75
2022/05/30 03:07:19;;;;;;;;;;;;;;;;;;5081920;28;19924;-76
2022/05/30 03:10:05;;;;;;;;;;;;;;;;;;5074489;28;19919;-75
2022/05/30 03:12:52;;;;;;;;;;;;;;;;;;5079284;28;19908;-76
2022/05/30 03:15:38;;;;;;;;;;;;;;;;;;5091184;28;19920;-75
2022/05/30 03:18:25;;;;;;;;;;;;;;;;;;5092008;28;20295;-74
2022/05/30 03:21:11;;;;;;;;;;;;;;;;;;5090227;28;19926;-76
2022/05/30 03:23:58;;;;;;;;;;;;;;;;;;5092889;28;19912;-76
2022/05/30 03:26:44;;;;;;;;;;;;;;;;;;5089469;28;19919;-76
2022/05/30 03:29:31;;;;;;;;;;;;;;;;;;5097948;28;19916;-75
2022/05/30 03:32:18;;;;;;;;;;;;;;;;;;5093342;28;19912;-76
2022/05/30 03:35:04;;;;;;;;;;;;;;;;;;5093159;28;19931;-76
2022/05/30 03:37:51;;;;;;;;;;;;;;;;;;5096215;28;19939;-76
2022/05/30 03:40:38;;;;;;;;;;;;;;;;;;5085454;28;20361;-76
2022/05/30 03:43:26;;;;;;;;;;;;;;;;;;5101835;27;20302;-76
2022/05/30 03:46:13;;;;;;;;;;;;;;;;;;5089163;28;19914;-77
2022/05/30 03:48:59;;;;;;;;;;;;;;;;;;5086584;28;19915;-75
2022/05/30 03:51:46;;;;;;;;;;;;;;;;;;5092823;28;19908;-75
2022/05/30 03:54:32;;;;;;;;;;;;;;;;;;5089922;28;20498;-75
2022/05/30 03:57:19;;;;;;;;;;;;;;;;;;5093337;28;19922;-75
2022/05/30 04:00:05;;;;;;;;;;;;;;;;;;5094418;28;19919;-76
2022/05/30 04:02:52;;;;;;;;;;;;;;;;;;5093073;28;20481;-75
2022/05/30 04:05:39;;;;;;;;;;;;;;;;;;5091447;28;19915;-75
2022/05/30 04:08:26;;;;;;;;;;;;;;;;;;5100540;28;19912;-75
2022/05/30 04:11:12;;;;;;;;;;;;;;;;;;5098365;27;19908;-76
2022/05/30 04:13:59;;;;;;;;;;;;;;;;;;5088724;28;20479;-75
2022/05/30 04:16:45;;;;;;;;;;;;;;;;;;5103668;28;19921;-76
2022/05/30 04:19:32;;;;;;;;;;;;;;;;;;5094714;28;19912;-77
2022/05/30 04:22:19;;;;;;;;;;;;;;;;;;5087864;28;20284;-76
2022/05/30 04:25:05;;;;;;;;;;;;;;;;;;5087150;28;19915;-76
2022/05/30 04:27:52;;;;;;;;;;;;;;;;;;5081489;28;19918;-75
2022/05/30 04:30:38;;;;;;;;;;;;;;;;;;5085266;28;19912;-74
2022/05/30 04:33:27;;;;;;;;;;;;;;;;;;5086506;28;19923;-74
2022/05/30 04:36:13;;;;;;;;;;;;;;;;;;5093045;28;19920;-75
2022/05/30 04:39:00;;;;;;;;;;;;;;;;;;5082363;28;20292;-75
2022/05/30 04:41:46;;;;;;;;;;;;;;;;;;5089280;28;19912;-75
2022/05/30 04:44:33;;;;;;;;;;;;;;;;;;5096927;28;19912;-74
2022/05/30 04:47:19;;;;;;;;;;;;;;;;;;5079609;28;19920;-74
2022/05/30 04:50:06;;;;;;;;;;;;;;;;;;5083892;28;19913;-74
2022/05/30 04:52:52;;;;;;;;;;;;;;;;;;5080598;28;20311;-74
2022/05/30 04:58:51;;;;;;;;;;;;;;;;;;5081285;28;19912;-74
2022/05/30 05:01:38;;;;;;;;;;;;;;;;;;5096242;28;19911;-73
2022/05/30 05:04:24;;;;;;;;;;;;;;;;;;5097508;28;19912;-74
2022/05/30 05:07:11;;;;;;;;;;;;;;;;;;5089186;28;20280;-74
2022/05/30 05:09:57;;;;;;;;;;;;;;;;;;5090037;28;19923;-74
2022/05/30 05:12:43;;;;;;;;;;;;;;;;;;5102149;28;19911;-73
2022/05/30 05:15:30;;;;;;;;;;;;;;;;;;5090927;28;19920;-73
2022/05/30 05:18:16;;;;;;;;;;;;;;;;;;5090198;28;19919;-74
2022/05/30 05:21:03;;;;;;;;;;;;;;;;;;5093592;28;19935;-74
2022/05/30 05:23:49;;;;;;;;;;;;;;;;;;5073969;28;19915;-73
2022/05/30 05:26:36;;;;;;;;;;;;;;;;;;5090072;28;20257;-75
2022/05/30 05:29:22;;;;;;;;;;;;;;;;;;5080273;28;20219;-75
2022/05/30 05:32:09;;;;;;;;;;;;;;;;;;5089304;28;20371;-76
2022/05/30 05:34:55;;;;;;;;;;;;;;;;;;5099910;28;19924;-74
2022/05/30 05:37:42;;;;;;;;;;;;;;;;;;5088022;28;20376;-74
2022/05/30 05:40:28;;;;;;;;;;;;;;;;;;5107458;27;19920;-74
2022/05/30 05:43:17;;;;;;;;;;;;;;;;;;5087358;28;21354;-73
2022/05/30 05:46:03;;;;;;;;;;;;;;;;;;5093405;28;19920;-74
2022/05/30 05:48:49;;;;;;;;;;;;;;;;;;5084467;28;20280;-75
2022/05/30 05:51:36;;;;;;;;;;;;;;;;;;5099419;28;19912;-74
2022/05/30 05:54:23;;;;;;;;;;;;;;;;;;5092381;28;19915;-74
2022/05/30 05:57:09;;;;;;;;;;;;;;;;;;5091611;28;19912;-74
2022/05/30 05:59:56;;;;;;;;;;;;;;;;;;5092768;28;19915;-74
2022/05/30 06:02:42;;;;;;;;;;;;;;;;;;5089734;28;20285;-73
2022/05/30 06:05:30;;;;;;;;;;;;;;;;;;5090563;28;19912;-73
2022/05/30 06:08:16;;;;;;;;;;;;;;;;;;5088255;28;19962;-74
2022/05/30 06:11:08;;;;;;;;;;;;;;;;;;5092479;28;19939;-75
2022/05/30 06:13:54;;;;;;;;;;;;;;;;;;5080419;28;20388;-75
2022/05/30 06:16:41;;;;;;;;;;;;;;;;;;5090066;28;19924;-74
2022/05/30 06:19:30;;;;;;;;;;;;;;;;;;5088547;28;19946;-74
2022/05/30 06:22:16;;;;;;;;;;;;;;;;;;5090238;28;19912;-75
2022/05/30 06:25:03;;;;;;;;;;;;;;;;;;5090320;28;19931;-74
2022/05/30 06:27:49;;;;;;;;;;;;;;;;;;5087219;28;19918;-74
2022/05/30 06:30:36;;;;;;;;;;;;;;;;;;5085076;28;20368;-74
2022/05/30 06:33:22;;;;;;;;;;;;;;;;;;5079333;28;19928;-74
2022/05/30 06:36:09;;;;;;;;;;;;;;;;;;5088994;28;19920;-75
2022/05/30 06:38:55;;;;;;;;;;;;;;;;;;5088937;28;19915;-74
2022/05/30 06:41:42;;;;;;;;;;;;;;;;;;5077528;28;20331;-74
2022/05/30 06:44:28;;;;;;;;;;;;;;;;;;5086550;28;19912;-74
2022/05/30 06:47:15;;;;;;;;;;;;;;;;;;5086778;28;19912;-74
2022/05/30 06:50:01;;;;;;;;;;;;;;;;;;5088162;28;19912;-74
2022/05/30 06:52:48;;;;;;;;;;;;;;;;;;5088944;28;19915;-74
2022/05/30 06:55:34;;;;;;;;;;;;;;;;;;5114735;27;20415;-75
2022/05/30 06:58:21;;;;;;;;;;;;;;;;;;5089675;28;19915;-75
2022/05/30 07:01:07;;;;;;;;;;;;;;;;;;5085576;28;19916;-75
2022/05/30 07:03:54;;;;;;;;;;;;;;;;;;5086955;28;19912;-73
2022/05/30 07:06:40;;;;;;;;;;;;;;;;;;5087537;28;19912;-75
2022/05/30 07:09:27;;;;;;;;;;;;;;;;;;5090315;28;19935;-74
2022/05/30 07:12:13;;;;;;;;;;;;;;;;;;5082466;28;20439;-73
2022/05/30 07:15:00;;;;;;;;;;;;;;;;;;5091300;28;19930;-74
2022/05/30 07:17:46;;;;;;;;;;;;;;;;;;5107053;27;20892;-74
2022/05/30 07:20:33;;;;;;;;;;;;;;;;;;5091843;28;20447;-74
2022/05/30 07:23:19;;;;;;;;;;;;;;;;;;5083529;28;19908;-74
2022/05/30 07:26:06;;;;;;;;;;;;;;;;;;5101152;27;19912;-75
2022/05/30 07:28:52;;;;;;;;;;;;;;;;;;5089550;28;20030;-75
2022/05/30 07:31:39;;;;;;;;;;;;;;;;;;5087498;28;19919;-75
2022/05/30 07:34:25;;;;;;;;;;;;;;;;;;5087974;28;19920;-75
2022/05/30 07:37:12;;;;;;;;;;;;;;;;;;5083774;28;19923;-75
2022/05/30 07:39:58;;;;;;;;;;;;;;;;;;5086452;28;20618;-75
2022/05/30 07:42:45;;;;;;;;;;;;;;;;;;5088991;28;19912;-76
2022/05/30 07:45:31;;;;;;;;;;;;;;;;;;5082317;28;19965;-74
2022/05/30 07:48:19;;;;;;;;;;;;;;;;;;5091831;28;19931;-76
2022/05/30 07:51:05;;;;;;;;;;;;;;;;;;5092527;28;19909;-75
2022/05/30 07:53:52;;;;;;;;;;;;;;;;;;5088239;28;20390;-75
2022/05/30 07:56:38;;;;;;;;;;;;;;;;;;5092624;28;20308;-76
2022/05/30 07:59:25;;;;;;;;;;;;;;;;;;5101140;28;19907;-75
2022/05/30 08:02:11;;;;;;;;;;;;;;;;;;5096081;28;19915;-75
2022/05/30 08:04:58;;;;;;;;;;;;;;;;;;5086034;28;20402;-75
2022/05/30 08:07:44;;;;;;;;;;;;;;;;;;5102910;28;19912;-74
2022/05/30 08:10:34;;;;;;;;;;;;;;;;;;5087250;28;19908;-75
2022/05/30 08:13:20;;;;;;;;;;;;;;;;;;5088920;28;19912;-74
2022/05/30 08:16:07;;;;;;;;;;;;;;;;;;5082777;28;19916;-75
2022/05/30 08:18:54;;;;;;;;;;;;;;;;;;5102047;27;20006;-75
2022/05/30 08:21:40;;;;;;;;;;;;;;;;;;5079736;28;19923;-75
2022/05/30 08:24:28;;;;;;;;;;;;;;;;;;5077451;28;19912;-75
2022/05/30 08:27:14;;;;;;;;;;;;;;;;;;5087880;28;19913;-74
2022/05/30 08:30:00;;;;;;;;;;;;;;;;;;5088429;28;19919;-73
2022/05/30 08:32:50;;;;;;;;;;;;;;;;;;5101040;28;19942;-74
2022/05/30 08:35:37;;;;;;;;;;;;;;;;;;5089750;28;19923;-74
2022/05/30 08:38:23;;;;;;;;;;;;;;;;;;5089507;28;19912;-74
2022/05/30 08:44:16;;;;;;;;;;;;;;;;;;5097918;28;19909;-75
2022/05/30 08:47:03;;;;;;;;;;;;;;;;;;5086829;28;19916;-74
2022/05/30 08:49:50;;;;;;;;;;;;;;;;;;5087856;28;19912;-74
2022/05/30 08:52:37;;;;;;;;;;;;;;;;;;5086102;28;19908;-74
2022/05/30 08:55:26;;;;;;;;;;;;;;;;;;5085105;28;19916;-75
2022/05/30 08:58:12;;;;;;;;;;;;;;;;;;5088036;28;19928;-75
2022/05/30 09:00:59;;;;;;;;;;;;;;;;;;5101782;28;20328;-75
2022/05/30 09:04:07;;;;;;;;;;;;;;;;;;5089942;28;19915;-75
2022/05/30 09:06:53;;;;;;;;;;;;;;;;;;5085598;28;20029;-74
2022/05/30 09:09:39;;;;;;;;;;;;;;;;;;5095731;28;19912;-74
2022/05/30 09:12:26;;;;;;;;;;;;;;;;;;5076120;28;19908;-75
2022/05/30 09:15:12;;;;;;;;;;;;;;;;;;5084494;28;20600;-74
2022/05/30 09:17:59;;;;;;;;;;;;;;;;;;5086578;28;19916;-77
2022/05/30 09:20:45;;;;;;;;;;;;;;;;;;5091508;28;19992;-73
2022/05/30 09:23:32;;;;;;;;;;;;;;;;;;5081704;28;20435;-74
2022/05/30 09:26:18;;;;;;;;;;;;;;;;;;5084549;28;19934;-75
2022/05/30 09:29:05;;;;;;;;;;;;;;;;;;5088556;28;20362;-74
2022/05/30 09:31:51;;;;;;;;;;;;;;;;;;5097439;28;20352;-75
2022/05/30 09:34:38;;;;;;;;;;;;;;;;;;5092697;28;20370;-74
2022/05/30 09:37:24;;;;;;;;;;;;;;;;;;5089178;28;19942;-75
2022/05/30 09:40:11;;;;;;;;;;;;;;;;;;5095169;28;19920;-74
2022/05/30 09:42:57;;;;;;;;;;;;;;;;;;5100987;28;19915;-75
2022/05/30 09:45:44;;;;;;;;;;;;;;;;;;5088191;28;20017;-74
2022/05/30 09:48:30;;;;;;;;;;;;;;;;;;5089941;28;19915;-74
2022/05/30 09:51:17;;;;;;;;;;;;;;;;;;5100024;28;19912;-74
2022/05/30 09:54:03;;;;;;;;;;;;;;;;;;5097637;28;20372;-75
2022/05/30 09:56:50;;;;;;;;;;;;;;;;;;5089929;28;20303;-75
2022/05/30 09:59:36;;;;;;;;;;;;;;;;;;5089548;28;19908;-75
2022/05/30 10:02:23;;;;;;;;;;;;;;;;;;5098083;28;20303;-75
2022/05/30 10:05:09;;;;;;;;;;;;;;;;;;5083666;28;19920;-74
2022/05/30 10:07:56;;;;;;;;;;;;;;;;;;5088990;28;20628;-75
2022/05/30 10:10:56;;;;;;;;;;;;;;;;;;5089849;28;19931;-77
2022/05/30 10:13:42;;;;;;;;;;;;;;;;;;5092650;28;19923;-76
2022/05/30 10:16:30;;;;;;;;;;;;;;;;;;5090472;28;19931;-77
2022/05/30 10:19:16;;;;;;;;;;;;;;;;;;5095837;28;19918;-77
2022/05/30 10:28:16;;;;;;;;;;;;;;;;;;5092732;28;19916;-76
2022/05/30 10:31:02;;;;;;;;;;;;;;;;;;5092680;28;19919;-76
2022/05/30 10:33:49;;;;;;;;;;;;;;;;;;5085701;28;19924;-75
2022/05/30 10:36:35;;;;;;;;;;;;;;;;;;5081308;28;19924;-75
2022/05/30 10:39:22;;;;;;;;;;;;;;;;;;5085582;28;19931;-75
2022/05/30 10:42:08;;;;;;;;;;;;;;;;;;5088945;28;19912;-75
2022/05/30 10:44:55;;;;;;;;;;;;;;;;;;5089357;28;19941;-76
2022/05/30 10:47:48;;;;;;;;;;;;;;;;;;5085464;28;20391;-76
2022/05/30 10:50:43;;;;;;;;;;;;;;;;;;5082929;28;20330;-77
2022/05/30 10:53:35;;;;;;;;;;;;;;;;;;5089551;28;20288;-75
2022/05/30 10:56:22;;;;;;;;;;;;;;;;;;5090804;28;19959;-76
2022/05/30 10:59:08;;;;;;;;;;;;;;;;;;5091382;28;19916;-76
2022/05/30 11:01:57;;;;;;;;;;;;;;;;;;5083289;28;19912;-76
2022/05/30 11:04:50;;;;;;;;;;;;;;;;;;5088969;28;19912;-76
2022/05/30 11:07:36;;;;;;;;;;;;;;;;;;5098189;28;19916;-77
2022/05/30 11:10:23;;;;;;;;;;;;;;;;;;5094796;28;19916;-76
2022/05/30 11:13:09;;;;;;;;;;;;;;;;;;5092598;28;19923;-75
2022/05/30 11:15:57;;;;;;;;;;;;;;;;;;5085937;28;20495;-76
2022/05/30 11:18:43;;;;;;;;;;;;;;;;;;5090853;28;19916;-77
2022/05/30 11:21:30;;;;;;;;;;;;;;;;;;5089345;28;20509;-75
2022/05/30 11:24:16;;;;;;;;;;;;;;;;;;5088722;28;20295;-74
2022/05/30 11:27:03;;;;;;;;;;;;;;;;;;5091491;28;19917;-76
2022/05/30 11:29:49;;;;;;;;;;;;;;;;;;5079193;28;19912;-77
2022/05/30 11:32:36;;;;;;;;;;;;;;;;;;5096987;28;19912;-77
2022/05/30 11:35:22;;;;;;;;;;;;;;;;;;5085031;28;20311;-76
2022/05/30 11:38:09;;;;;;;;;;;;;;;;;;5071184;28;19912;-76
2022/05/30 11:40:55;;;;;;;;;;;;;;;;;;5088222;28;19912;-75
2022/05/30 11:43:42;;;;;;;;;;;;;;;;;;5082703;28;19912;-76
2022/05/30 11:46:28;;;;;;;;;;;;;;;;;;5083723;28;20386;-75
2022/05/30 11:49:15;;;;;;;;;;;;;;;;;;5086765;28;19908;-77
2022/05/30 11:52:02;;;;;;;;;;;;;;;;;;5083495;28;19922;-77
2022/05/30 11:54:48;;;;;;;;;;;;;;;;;;5085339;28;21229;-76
2022/05/30 11:57:34;;;;;;;;;;;;;;;;;;5087471;28;19923;-75
2022/05/30 12:00:21;;;;;;;;;;;;;;;;;;5088731;28;19909;-76
2022/05/30 12:03:07;;;;;;;;;;;;;;;;;;5088497;28;19919;-75
2022/05/30 12:05:54;;;;;;;;;;;;;;;;;;5085357;28;19939;-75
2022/05/30 12:08:40;;;;;;;;;;;;;;;;;;5089805;28;19932;-75
2022/05/30 12:11:27;;;;;;;;;;;;;;;;;;5089918;28;19908;-76
2022/05/30 12:14:13;;;;;;;;;;;;;;;;;;5079500;28;19920;-76
2022/05/30 12:17:00;;;;;;;;;;;;;;;;;;5087487;28;19924;-76
2022/05/30 12:25:57;;;;;;;;;;;;;;;;;;5079652;28;19920;-77
2022/05/30 12:28:44;;;;;;;;;;;;;;;;;;5089355;28;20002;-77
2022/05/30 12:31:30;;;;;;;;;;;;;;;;;;5087755;28;20482;-77
2022/05/30 12:34:17;;;;;;;;;;;;;;;;;;5077101;28;19942;-77
2022/05/30 12:37:03;;;;;;;;;;;;;;;;;;5085719;28;20382;-76
2022/05/30 12:39:50;;;;;;;;;;;;;;;;;;5093048;28;19914;-76
2022/05/30 12:42:41;;;;;;;;;;;;;;;;;;5097403;28;19908;-76
2022/05/30 12:45:28;;;;;;;;;;;;;;;;;;5081614;28;19916;-76
2022/05/30 12:48:16;;;;;;;;;;;;;;;;;;5090245;28;20290;-76
2022/05/30 12:51:03;;;;;;;;;;;;;;;;;;5084819;28;19911;-76
2022/05/30 12:53:49;;;;;;;;;;;;;;;;;;5090881;28;19916;-77
2022/05/30 12:56:36;;;;;;;;;;;;;;;;;;5087968;28;20471;-76
2022/05/30 12:59:22;;;;;;;;;;;;;;;;;;5086273;28;19915;-76
2022/05/30 13:02:09;;;;;;;;;;;;;;;;;;5084441;28;19927;-75
2022/05/30 13:04:55;;;;;;;;;;;;;;;;;;5075919;28;20265;-75
2022/05/30 13:07:41;;;;;;;;;;;;;;;;;;5085040;28;19908;-75
2022/05/30 13:10:28;;;;;;;;;;;;;;;;;;5079337;28;19923;-76
2022/05/30 13:13:14;;;;;;;;;;;;;;;;;;5086631;28;20292;-76
2022/05/30 13:16:01;;;;;;;;;;;;;;;;;;5087151;28;19931;-76
2022/05/30 13:18:47;;;;;;;;;;;;;;;;;;5077322;28;20319;-76
2022/05/30 13:21:34;;;;;;;;;;;;;;;;;;5093624;28;19939;-75
2022/05/30 13:24:20;;;;;;;;;;;;;;;;;;5091718;28;20288;-76
2022/05/30 13:27:07;;;;;;;;;;;;;;;;;;5101238;28;19908;-76
2022/05/30 13:29:53;;;;;;;;;;;;;;;;;;5096444;28;19912;-77
2022/05/30 13:32:40;;;;;;;;;;;;;;;;;;5090711;28;19920;-76
2022/05/30 13:35:26;;;;;;;;;;;;;;;;;;5096500;28;19920;-76
2022/05/30 13:38:13;;;;;;;;;;;;;;;;;;5102514;28;20228;-76
2022/05/30 13:40:59;;;;;;;;;;;;;;;;;;5080113;28;19912;-76
2022/05/30 13:43:46;;;;;;;;;;;;;;;;;;5094100;28;19914;-75
2022/05/30 13:46:32;;;;;;;;;;;;;;;;;;5099651;28;20695;-75
2022/05/30 13:49:19;;;;;;;;;;;;;;;;;;5092206;28;19923;-76
2022/05/30 13:52:05;;;;;;;;;;;;;;;;;;5093123;28;19912;-76
2022/05/30 13:54:52;;;;;;;;;;;;;;;;;;5081892;28;19909;-75
2022/05/30 13:57:38;;;;;;;;;;;;;;;;;;5086896;28;19916;-76
2022/05/30 14:00:25;;;;;;;;;;;;;;;;;;5092692;28;19930;-76
2022/05/30 14:03:11;;;;;;;;;;;;;;;;;;5091241;28;19911;-76
2022/05/30 14:05:58;;;;;;;;;;;;;;;;;;5098929;28;19917;-76
2022/05/30 14:08:44;;;;;;;;;;;;;;;;;;5080070;28;20268;-76
2022/05/30 14:11:31;;;;;;;;;;;;;;;;;;5089600;28;19920;-76
2022/05/30 14:14:17;;;;;;;;;;;;;;;;;;5087092;28;20310;-75
2022/05/30 14:17:04;;;;;;;;;;;;;;;;;;5086817;28;19931;-76
2022/05/30 14:19:50;;;;;;;;;;;;;;;;;;5085245;28;19920;-75
2022/05/30 14:22:37;;;;;;;;;;;;;;;;;;5086781;28;19908;-75
2022/05/30 14:25:23;;;;;;;;;;;;;;;;;;5084853;28;19923;-76
2022/05/30 14:28:10;;;;;;;;;;;;;;;;;;5083855;28;19908;-74
2022/05/30 14:30:56;;;;;;;;;;;;;;;;;;5085138;28;19915;-76
2022/05/30 14:33:43;;;;;;;;;;;;;;;;;;5090879;28;20014;-76
2022/05/30 14:36:29;;;;;;;;;;;;;;;;;;5087564;28;19920;-76
2022/05/30 14:39:16;;;;;;;;;;;;;;;;;;5090126;28;19916;-77
2022/05/30 14:42:03;;;;;;;;;;;;;;;;;;5088241;28;19915;-76
2022/05/30 14:44:50;;;;;;;;;;;;;;;;;;5084399;28;19908;-77
2022/05/30 14:47:37;;;;;;;;;;;;;;;;;;5099052;27;20410;-77
2022/05/30 14:50:24;;;;;;;;;;;;;;;;;;5090120;28;19927;-75
2022/05/30 14:53:11;;;;;;;;;;;;;;;;;;5087876;28;19916;-77
2022/05/30 14:55:57;;;;;;;;;;;;;;;;;;5088927;28;20429;-77
2022/05/30 14:58:44;;;;;;;;;;;;;;;;;;5086758;28;19912;-76
2022/05/30 15:01:32;;;;;;;;;;;;;;;;;;5086057;28;20360;-76
2022/05/30 15:04:19;;;;;;;;;;;;;;;;;;5058328;28;19928;-75
2022/05/30 15:07:06;;;;;;;;;;;;;;;;;;5069490;28;20548;-75
2022/05/30 15:09:52;;;;;;;;;;;;;;;;;;5069381;28;19908;-76
2022/05/30 15:12:39;;;;;;;;;;;;;;;;;;5068371;28;19913;-75
2022/05/30 15:15:25;;;;;;;;;;;;;;;;;;5076627;28;19912;-76
2022/05/30 15:18:13;;;;;;;;;;;;;;;;;;5064018;28;20229;-76
2022/05/30 15:21:02;;;;;;;;;;;;;;;;;;5068617;28;19919;-79
2022/05/30 15:23:49;;;;;;;;;;;;;;;;;;5068376;28;19908;-77
2022/05/30 15:26:36;;;;;;;;;;;;;;;;;;5093573;28;19912;-77
2022/05/30 15:29:23;;;;;;;;;;;;;;;;;;5088774;28;19919;-76
2022/05/30 15:32:10;;;;;;;;;;;;;;;;;;5088749;28;19912;-77
2022/05/30 15:34:57;;;;;;;;;;;;;;;;;;5086507;28;20571;-76
2022/05/30 15:37:43;;;;;;;;;;;;;;;;;;5099746;28;20394;-74
2022/05/30 15:40:30;;;;;;;;;;;;;;;;;;5084437;28;20686;-75
2022/05/30 15:43:16;;;;;;;;;;;;;;;;;;5085747;28;19934;-75
2022/05/30 15:46:03;;;;;;;;;;;;;;;;;;5088055;28;19915;-75
2022/05/30 15:48:50;;;;;;;;;;;;;;;;;;5087166;28;19919;-75
2022/05/30 15:51:37;;;;;;;;;;;;;;;;;;5089163;28;20272;-75
2022/05/30 15:57:29;;;;;;;;;;;;;;;;;;5084625;28;19923;-77
2022/05/30 16:00:15;;;;;;;;;;;;;;;;;;5080860;28;19916;-76
2022/05/30 16:03:02;;;;;;;;;;;;;;;;;;5088798;28;19997;-76
2022/05/30 16:05:49;;;;;;;;;;;;;;;;;;5088006;28;20005;-76
2022/05/30 16:08:36;;;;;;;;;;;;;;;;;;5077269;28;19912;-76
2022/05/30 16:11:23;;;;;;;;;;;;;;;;;;5083521;28;19916;-76
2022/05/30 16:14:11;;;;;;;;;;;;;;;;;;5087270;28;19939;-74
2022/05/30 16:16:57;;;;;;;;;;;;;;;;;;5088616;28;19927;-77
2022/05/30 16:19:44;;;;;;;;;;;;;;;;;;5094079;28;19916;-77
2022/05/30 16:22:30;;;;;;;;;;;;;;;;;;5098279;28;19908;-77
2022/05/30 16:25:17;;;;;;;;;;;;;;;;;;5098241;28;20664;-76
2022/05/30 16:28:03;;;;;;;;;;;;;;;;;;5092312;28;19919;-77
2022/05/30 16:30:50;;;;;;;;;;;;;;;;;;5088626;28;19918;-77
2022/05/30 16:33:36;;;;;;;;;;;;;;;;;;5086192;28;20466;-75
2022/05/30 16:36:24;;;;;;;;;;;;;;;;;;5090508;28;19936;-75
2022/05/30 16:39:11;;;;;;;;;;;;;;;;;;5084607;28;19935;-77
2022/05/30 16:41:57;;;;;;;;;;;;;;;;;;5088214;28;19922;-78
2022/05/30 16:44:44;;;;;;;;;;;;;;;;;;5091237;28;20415;-79
2022/05/30 16:47:30;;;;;;;;;;;;;;;;;;5082587;28;19915;-79
2022/05/30 16:50:17;;;;;;;;;;;;;;;;;;5085408;28;20174;-80
2022/05/30 16:53:04;;;;;;;;;;;;;;;;;;5090134;28;20265;-79
2022/05/30 16:55:50;;;;;;;;;;;;;;;;;;5089985;28;19927;-78
2022/05/30 16:58:37;;;;;;;;;;;;;;;;;;5098158;28;19915;-78
2022/05/30 17:01:23;;;;;;;;;;;;;;;;;;5097086;28;19918;-78
2022/05/30 17:04:10;;;;;;;;;;;;;;;;;;5091192;28;19922;-79
2022/05/30 17:06:56;;;;;;;;;;;;;;;;;;5088521;28;20363;-79
2022/05/30 17:09:42;;;;;;;;;;;;;;;;;;5089949;28;19915;-79
2022/05/30 17:12:29;;;;;;;;;;;;;;;;;;5093441;28;20315;-79
2022/05/30 17:15:17;;;;;;;;;;;;;;;;;;5070933;28;19922;-80
2022/05/30 17:18:03;;;;;;;;;;;;;;;;;;5092274;28;19924;-80
2022/05/30 17:20:50;;;;;;;;;;;;;;;;;;5091237;28;19924;-79
2022/05/30 17:23:40;;;;;;;;;;;;;;;;;;5087984;28;20018;-79
2022/05/30 17:29:32;;;;;;;;;;;;;;;;;;5088489;28;19942;-82
2022/05/30 17:32:21;;;;;;;;;;;;;;;;;;5086517;28;19916;-80
2022/05/30 17:35:07;;;;;;;;;;;;;;;;;;5100032;28;19920;-78
2022/05/30 17:37:54;;;;;;;;;;;;;;;;;;5088510;28;20558;-77
2022/05/30 17:40:41;;;;;;;;;;;;;;;;;;5087951;28;20288;-80
2022/05/30 17:43:27;;;;;;;;;;;;;;;;;;5085452;28;19915;-78
2022/05/30 17:46:14;;;;;;;;;;;;;;;;;;5096008;28;19918;-77
2022/05/30 17:49:00;;;;;;;;;;;;;;;;;;5104131;28;19908;-76
2022/05/30 17:51:47;;;;;;;;;;;;;;;;;;5102032;28;19919;-76
2022/05/30 17:54:34;;;;;;;;;;;;;;;;;;5088452;28;19908;-76
2022/05/30 17:57:21;;;;;;;;;;;;;;;;;;5087427;28;20026;-76
2022/05/30 18:00:08;;;;;;;;;;;;;;;;;;5085547;28;19915;-76
2022/05/30 18:02:55;;;;;;;;;;;;;;;;;;5096568;28;19923;-77
2022/05/30 18:05:41;;;;;;;;;;;;;;;;;;5097275;28;19912;-76
2022/05/30 18:08:28;;;;;;;;;;;;;;;;;;5090181;28;19919;-76
2022/05/30 18:11:14;;;;;;;;;;;;;;;;;;5089788;28;20325;-79
2022/05/30 18:14:01;;;;;;;;;;;;;;;;;;5086538;28;19915;-77
2022/05/30 18:16:47;;;;;;;;;;;;;;;;;;5087029;28;19946;-77
2022/05/30 18:19:37;;;;;;;;;;;;;;;;;;5091924;28;19919;-76
2022/05/30 18:22:24;;;;;;;;;;;;;;;;;;5091269;28;19920;-78
2022/05/30 18:25:10;;;;;;;;;;;;;;;;;;5081657;28;19935;-75
2022/05/30 18:27:58;;;;;;;;;;;;;;;;;;5105972;27;19938;-74
2022/05/30 18:30:45;;;;;;;;;;;;;;;;;;5083871;28;19916;-75
2022/05/30 18:33:31;;;;;;;;;;;;;;;;;;5090363;28;20355;-74
2022/05/30 18:36:18;;;;;;;;;;;;;;;;;;5084902;28;19943;-76
2022/05/30 18:39:05;;;;;;;;;;;;;;;;;;5079518;28;19923;-76
2022/05/30 18:41:51;;;;;;;;;;;;;;;;;;5087115;28;20372;-75
2022/05/30 18:44:38;;;;;;;;;;;;;;;;;;5083216;28;19913;-76
2022/05/30 18:47:24;;;;;;;;;;;;;;;;;;5088546;28;19954;-75
2022/05/30 18:50:11;;;;;;;;;;;;;;;;;;5083921;28;19935;-74
2022/05/30 18:52:58;;;;;;;;;;;;;;;;;;5094532;28;19916;-76
2022/05/30 18:55:44;;;;;;;;;;;;;;;;;;5087546;28;19927;-79
2022/05/30 18:58:32;;;;;;;;;;;;;;;;;;5078381;28;19914;-77
2022/05/30 19:01:18;;;;;;;;;;;;;;;;;;5084791;28;19912;-76
2022/05/30 19:04:05;;;;;;;;;;;;;;;;;;5086419;28;19927;-76
2022/05/30 19:06:51;;;;;;;;;;;;;;;;;;5085570;28;19912;-78
2022/05/30 19:09:38;;;;;;;;;;;;;;;;;;5084232;28;19912;-75
2022/05/30 19:12:26;;;;;;;;;;;;;;;;;;5087225;28;20372;-79
2022/05/30 19:18:21;;;;;;;;;;;;;;;;;;5085808;28;20551;-78
2022/05/30 19:21:07;;;;;;;;;;;;;;;;;;5087692;28;19912;-76
2022/05/30 19:23:54;;;;;;;;;;;;;;;;;;5085390;28;19923;-78
2022/05/30 19:26:40;;;;;;;;;;;;;;;;;;5087405;28;20356;-78
2022/05/30 19:29:33;;;;;;;;;;;;;;;;;;5085345;28;19923;-78
2022/05/30 19:32:20;;;;;;;;;;;;;;;;;;5083208;28;19916;-81
2022/05/30 19:35:07;;;;;;;;;;;;;;;;;;5083397;28;19924;-82
2022/05/30 19:37:53;;;;;;;;;;;;;;;;;;5093430;28;19920;-80
2022/05/30 19:40:40;;;;;;;;;;;;;;;;;;5085461;28;19916;-79